Time;durP1;ratioP1;P1;durP2;ratioP2;P2;SDS_P1;SDS_P2;PMS_P1;PMS_P2;Temp;Humidity;BMP_temperature;BMP_pressure;BME280_temperature;BME280_humidity;BME280_pressure;Samples;Min_cycle;Max_cycle;Signal;HPM_P1;HPM_P2
2022/02/10 00:17:37;;;;;;;0.00;0.00;;;;;20.40;100507.00;;;;5129516;27;20092;-75
2022/02/10 00:20:19;;;;;;;0.00;0.00;;;;;20.30;100504.00;;;;5129724;27;20386;-75
2022/02/10 00:25:59;;;;;;;0.00;0.00;;;;;20.30;100520.00;;;;5119662;27;20092;-74
2022/02/10 00:36:41;;;;;;;0.00;0.00;;;;;20.30;100507.00;;;;5122351;27;20130;-74
2022/02/10 00:39:33;;;;;;;0.00;0.00;;;;;20.30;100517.00;;;;5108034;28;20071;-76
2022/02/10 00:42:04;;;;;;;0.00;0.00;;;;;20.20;100524.00;;;;5107257;28;20051;-73
2022/02/10 00:44:33;;;;;;;0.00;0.00;;;;;20.10;100505.00;;;;5109013;28;20051;-74
2022/02/10 00:47:03;;;;;;;0.00;0.00;;;;;20.00;100523.00;;;;5108697;28;20052;-75
2022/02/10 00:49:34;;;;;;;0.00;0.00;;;;;20.10;100528.00;;;;5108660;27;20044;-76
2022/02/10 00:52:06;;;;;;;0.00;0.00;;;;;20.00;100526.00;;;;5108800;28;20074;-74
2022/02/10 00:54:38;;;;;;;0.00;0.00;;;;;19.90;100507.00;;;;5108169;28;20039;-76
2022/02/10 00:57:08;;;;;;;0.00;0.00;;;;;20.00;100512.00;;;;5108599;28;20035;-72
2022/02/10 00:59:57;;;;;;;0.00;0.00;;;;;20.10;100527.00;;;;5108531;28;20048;-73
2022/02/10 01:14:07;;;;;;;0.00;0.00;;;;;20.00;100505.00;;;;5076813;28;20132;-74
2022/02/10 01:30:21;;;;;;;0.00;0.00;;;;;20.00;100521.00;;;;5099806;28;20562;-75
2022/02/10 01:32:54;;;;;;;0.00;0.00;;;;;19.80;100528.00;;;;5087140;28;20040;-75
2022/02/10 01:35:26;;;;;;;0.00;0.00;;;;;19.80;100533.00;;;;5087582;28;20079;-74
2022/02/10 01:37:56;;;;;;;0.00;0.00;;;;;19.80;100505.00;;;;5087776;28;20067;-74
2022/02/10 01:40:39;;;;;;;2.07;0.13;;;;;19.80;100499.00;;;;5086694;28;20036;-74
2022/02/10 02:05:35;;;;;;;0.00;0.00;;;;;19.40;100485.00;;;;5127696;27;20142;-75
2022/02/10 02:08:07;;;;;;;0.00;0.00;;;;;19.30;100511.00;;;;5128006;27;20122;-75
2022/02/10 02:10:37;;;;;;;0.00;0.00;;;;;19.30;100494.00;;;;5128203;27;20448;-75
2022/02/10 02:13:07;;;;;;;0.00;0.00;;;;;19.40;100482.00;;;;5128402;27;20039;-75
2022/02/10 02:15:36;;;;;;;0.00;0.00;;;;;19.30;100510.00;;;;5127546;27;20064;-74
2022/02/10 02:18:06;;;;;;;0.00;0.00;;;;;19.20;100508.00;;;;5126275;27;20548;-74
2022/02/10 02:20:36;;;;;;;0.00;0.00;;;;;19.10;100498.00;;;;5127806;27;20043;-74
2022/02/10 02:23:05;;;;;;;0.00;0.00;;;;;19.00;100509.00;;;;5128155;27;20047;-74
2022/02/10 02:25:35;;;;;;;0.00;0.00;;;;;19.00;100506.00;;;;5128257;27;20405;-75
2022/02/10 02:28:08;;;;;;;0.00;0.00;;;;;18.90;100513.00;;;;5127812;27;20043;-75
2022/02/10 02:30:58;;;;;;;0.00;0.00;;;;;19.00;100517.00;;;;5127241;27;20422;-75
2022/02/10 02:36:44;;;;;;;0.00;0.00;;;;;19.20;100494.00;;;;5124083;27;20035;-75
2022/02/10 02:39:29;;;;;;;0.88;0.55;;;;;19.20;100508.00;;;;5126557;27;20088;-75
2022/02/10 03:07:29;;;;;;;0.00;0.00;;;;;19.10;100512.00;;;;5131472;27;20031;-75
2022/02/10 03:12:55;;;;;;;0.00;0.00;;;;;19.20;100510.00;;;;5107630;27;20135;-75
2022/02/10 03:15:28;;;;;;;0.00;0.00;;;;;19.30;100489.00;;;;5129861;27;20937;-75
2022/02/10 04:03:00;;;;;;;0.00;0.00;;;;;18.20;100455.00;;;;5108676;27;20065;-75
2022/02/10 04:06:02;;;;;;;0.00;0.00;;;;;18.10;100459.00;;;;5130675;27;20039;-75
2022/02/10 04:16:27;;;;;;;0.00;0.00;;;;;18.10;100450.00;;;;5130565;27;20498;-75
2022/02/10 04:24:21;;;;;;;0.00;0.00;;;;;18.10;100437.00;;;;5129319;27;20055;-75
2022/02/10 04:27:02;;;;;;;0.00;0.00;;;;;18.20;100448.00;;;;5130247;27;20035;-75
2022/02/10 04:29:47;;;;;;;;;;;;;18.20;100455.00;;;;5130602;27;20047;-75
2022/02/10 04:43:48;;;;;;;0.00;0.00;;;;;18.50;100416.00;;;;5113738;27;20937;-75
2022/02/10 05:00:32;;;;;;;0.00;0.00;;;;;18.60;100412.00;;;;5128525;27;20047;-76
2022/02/10 05:12:17;;;;;;;0.00;0.00;;;;;18.20;100406.00;;;;5129598;27;20067;-75
2022/02/10 05:33:36;;;;;;;0.00;0.00;;;;;17.60;100397.00;;;;5128399;27;20124;-74
2022/02/10 05:36:12;;;;;;;0.00;0.00;;;;;17.60;100401.00;;;;5128708;27;20531;-75
2022/02/10 05:39:20;;;;;;;0.00;0.00;;;;;17.60;100386.00;;;;5128359;27;20043;-75
2022/02/10 05:54:54;;;;;;;0.00;0.00;;;;;17.40;100387.00;;;;5128219;27;20043;-75
2022/02/10 05:57:45;;;;;;;0.00;0.00;;;;;17.40;100391.00;;;;5128527;27;20047;-75
2022/02/10 06:43:31;;;;;;;0.00;0.00;;;;;17.60;100390.00;;;;5126977;27;20120;-75
2022/02/10 06:47:55;;;;;;;0.00;0.00;;;;;17.60;100377.00;;;;5126498;27;20463;-75
2022/02/10 06:53:54;;;;;;;0.00;0.00;;;;;17.70;100385.00;;;;5127688;28;20043;-75
2022/02/10 07:56:29;;;;;;;0.00;0.00;;;;;17.20;100366.00;;;;5130897;27;20122;-75
2022/02/10 08:57:10;;;;;;;0.00;0.00;;;;;17.20;100384.00;;;;5129709;27;20035;-74
2022/02/10 09:09:16;;;;;;;0.00;0.00;;;;;17.40;100395.00;;;;5116601;27;20066;-74
2022/02/10 09:26:00;;;;;;;0.00;0.00;;;;;17.20;100417.00;;;;5129152;27;20108;-74
2022/02/10 09:54:25;;;;;;;0.00;0.00;;;;;17.70;100411.00;;;;5064141;28;20123;-75
2022/02/10 09:56:23;;;;;;;0.00;0.00;;;;;17.70;100407.00;;;;5128612;27;20043;-75
2022/02/10 09:59:37;;;;;;;0.00;0.00;;;;;17.90;100401.00;;;;5127992;27;20413;-74
2022/02/10 10:02:13;;;;;;;0.00;0.00;;;;;18.00;100411.00;;;;5126438;27;20062;-75
2022/02/10 10:05:14;;;;;;;0.00;0.00;;;;;18.20;100387.00;;;;5128066;27;20042;-74
2022/02/10 10:21:36;;;;;;;0.00;0.00;;;;;22.80;100320.00;;;;5128116;27;20118;-75
2022/02/10 10:49:50;;;;;;;0.15;0.15;;;;;31.40;100207.00;;;;5127307;27;20096;-75
2022/02/10 10:52:29;;;;;;;0.00;0.00;;;;;32.20;100211.00;;;;5127493;28;20076;-76
2022/02/10 10:55:22;;;;;;;0.00;0.00;;;;;31.90;100208.00;;;;5126830;27;20043;-75
2022/02/10 10:57:55;;;;;;;0.00;0.00;;;;;32.40;100199.00;;;;5127561;28;20046;-75
2022/02/10 11:00:38;;;;;;;0.00;0.00;;;;;33.40;100196.00;;;;5126215;28;20075;-76
2022/02/10 11:38:32;;;;;;;0.00;0.00;;;;;35.00;100170.00;;;;5130619;27;20130;-76
2022/02/10 11:41:18;;;;;;;0.00;0.00;;;;;35.20;100185.00;;;;5131357;27;20043;-76
2022/02/10 14:16:26;;;;;;;0.00;0.00;;;;;32.60;100264.00;;;;5096801;27;20054;-75
2022/02/10 14:18:55;;;;;;;0.00;0.00;;;;;33.30;100268.00;;;;5128168;27;20047;-75
2022/02/10 14:21:32;;;;;;;0.00;0.00;;;;;34.00;100253.00;;;;5125418;27;20039;-75
2022/02/10 14:26:47;;;;;;;0.00;0.00;;;;;33.50;100257.00;;;;5112447;27;20035;-75
2022/02/10 14:29:19;;;;;;;0.00;0.00;;;;;33.30;100257.00;;;;5113597;27;20680;-76
2022/02/10 14:31:53;;;;;;;0.00;0.00;;;;;33.20;100252.00;;;;5112340;27;20044;-75
2022/02/10 14:34:26;;;;;;;0.03;0.03;;;;;34.10;100253.00;;;;5106521;28;20043;-75
2022/02/10 15:28:58;;;;;;;0.03;0.03;;;;;35.80;100210.00;;;;5106133;28;20052;-75
2022/02/10 16:18:45;;;;;;;0.10;0.10;;;;;36.10;100166.00;;;;5076210;27;20609;-75
2022/02/10 16:21:29;;;;;;;0.00;0.00;;;;;36.80;100153.00;;;;5103055;27;20036;-78
2022/02/10 16:24:02;;;;;;;0.00;0.00;;;;;36.60;100149.00;;;;5087957;28;20067;-78
2022/02/10 16:27:17;;;;;;;0.00;0.00;;;;;36.60;100160.00;;;;5088294;27;20050;-74
2022/02/10 16:29:28;;;;;;;0.00;0.00;;;;;36.40;100170.00;;;;5104241;27;20056;-75
2022/02/10 16:31:58;;;;;;;0.00;0.00;;;;;36.40;100147.00;;;;5108509;27;20530;-73
2022/02/10 16:34:32;;;;;;;0.00;0.00;;;;;36.40;100147.00;;;;5107253;28;20497;-73
2022/02/10 16:37:09;;;;;;;0.20;0.15;;;;;36.00;100153.00;;;;5108147;28;20402;-75
2022/02/10 16:39:44;;;;;;;0.00;0.00;;;;;35.90;100147.00;;;;5108484;28;20032;-76
2022/02/10 16:42:19;;;;;;;0.00;0.00;;;;;36.10;100140.00;;;;5108035;28;20044;-74
2022/02/10 16:44:53;;;;;;;0.00;0.00;;;;;36.10;100131.00;;;;5108218;28;20065;-75
2022/02/10 16:47:28;;;;;;;0.13;0.13;;;;;36.80;100131.00;;;;5108387;28;20158;-74
2022/02/10 16:50:03;;;;;;;0.00;0.00;;;;;36.80;100125.00;;;;5114037;27;20557;-74
2022/02/10 16:52:44;;;;;;;0.00;0.00;;;;;37.10;100137.00;;;;5114479;27;20632;-74
2022/02/10 17:20:43;;;;;;;0.00;0.00;;;;;37.60;100114.00;;;;5116107;27;20047;-79
2022/02/10 17:26:27;;;;;;;0.10;0.10;;;;;37.00;100096.00;;;;5117904;27;20054;-72
2022/02/10 17:28:54;;;;;;;0.00;0.00;;;;;37.80;100106.00;;;;5118579;27;20425;-76
2022/02/10 17:53:37;;;;;;;0.00;0.00;;;;;38.90;100064.00;;;;5105422;28;20044;-76
2022/02/10 17:56:09;;;;;;;7.03;3.00;;;;;39.70;100069.00;;;;5108256;28;20444;-72
2022/02/10 17:58:40;;;;;;;0.00;0.00;;;;;39.50;100073.00;;;;5107140;27;20074;-75
2022/02/10 18:01:13;;;;;;;0.00;0.00;;;;;39.10;100070.00;;;;5116402;27;20043;-75
2022/02/10 18:03:43;;;;;;;0.00;0.00;;;;;39.00;100070.00;;;;5114344;27;20043;-77
2022/02/10 18:06:28;;;;;;;0.10;0.10;;;;;39.50;100066.00;;;;5115852;27;20065;-74
2022/02/10 18:09:27;;;;;;;0.00;0.00;;;;;39.30;100065.00;;;;5117787;27;20039;-74
2022/02/10 18:14:44;;;;;;;0.00;0.00;;;;;39.80;100063.00;;;;5097092;28;20534;-75
2022/02/10 18:17:39;;;;;;;0.00;0.00;;;;;39.40;100054.00;;;;5107276;27;20042;-74
2022/02/10 18:20:14;;;;;;;0.00;0.00;;;;;37.90;100082.00;;;;5117687;27;20514;-74
2022/02/10 19:05:35;;;;;;;0.00;0.00;;;;;41.80;100007.00;;;;5113872;28;20055;-73
2022/02/10 19:09:39;;;;;;;0.00;0.00;;;;;41.10;100014.00;;;;5116030;28;20039;-74
2022/02/10 19:12:22;;;;;;;0.00;0.00;;;;;41.30;100016.00;;;;5115533;28;20039;-73
2022/02/10 19:15:09;;;;;;;0.00;0.00;;;;;42.30;99996.00;;;;5098448;28;20040;-73
2022/02/10 19:17:40;;;;;;;0.38;0.17;;;;;42.10;100019.00;;;;5126972;27;20558;-74
2022/02/10 19:20:12;;;;;;;0.00;0.00;;;;;41.70;100000.00;;;;5126872;28;20039;-77
2022/02/10 19:22:42;;;;;;;;;;;;;42.20;100017.00;;;;5123230;28;20142;-73
2022/02/10 19:25:12;;;;;;;;;;;;;42.00;100012.00;;;;5094122;28;19975;-73
2022/02/10 19:27:43;;;;;;;0.00;0.00;;;;;42.30;100010.00;;;;5085565;28;19928;-72
2022/02/10 19:30:15;;;;;;;0.00;0.00;;;;;41.50;99995.00;;;;5085712;28;20048;-76
2022/02/10 19:32:54;;;;;;;0.00;0.00;;;;;41.40;100008.00;;;;5085316;28;20040;-76
2022/02/10 19:35:26;;;;;;;0.00;0.00;;;;;41.50;100005.00;;;;5086324;28;20097;-74
2022/02/10 19:38:00;;;;;;;0.00;0.00;;;;;41.50;100008.00;;;;5086496;28;20162;-73
2022/02/10 19:40:38;;;;;;;0.60;0.20;;;;;41.60;100009.00;;;;5105987;28;20598;-74
2022/02/10 19:43:10;;;;;;;0.20;0.20;;;;;41.80;99999.00;;;;5118488;27;20601;-77
2022/02/10 19:45:39;;;;;;;10.00;3.10;;;;;41.60;100000.00;;;;5111168;28;20093;-72
2022/02/10 19:48:10;;;;;;;0.00;0.00;;;;;41.50;99996.00;;;;5107781;28;20039;-75
2022/02/10 19:50:43;;;;;;;0.00;0.00;;;;;41.50;100010.00;;;;5116353;27;20044;-75
2022/02/10 19:53:18;;;;;;;0.00;0.00;;;;;41.80;100007.00;;;;5126056;27;20051;-78
2022/02/10 19:55:50;;;;;;;0.00;0.00;;;;;41.30;99989.00;;;;5103051;27;20050;-79
2022/02/10 19:58:23;;;;;;;0.00;0.00;;;;;40.80;100008.00;;;;5130298;27;20039;-75
2022/02/10 20:00:57;;;;;;;0.00;0.00;;;;;39.70;99998.00;;;;5125189;27;20035;-74
2022/02/10 20:03:31;;;;;;;0.00;0.00;;;;;38.20;100028.00;;;;5120824;27;20059;-74
2022/02/10 20:06:03;;;;;;;0.00;0.00;;;;;37.10;100038.00;;;;5128979;27;20051;-75
2022/02/10 20:08:33;;;;;;;0.00;0.00;;;;;38.00;99996.00;;;;5128799;27;20405;-74
2022/02/10 20:11:05;;;;;;;0.00;0.00;;;;;38.00;100009.00;;;;5129512;27;20035;-74
2022/02/10 20:13:35;;;;;;;0.00;0.00;;;;;35.60;100035.00;;;;5129275;27;20116;-75
2022/02/10 20:16:08;;;;;;;0.20;0.20;;;;;33.70;100053.00;;;;5129196;27;20547;-76
2022/02/10 20:18:38;;;;;;;0.00;0.00;;;;;32.50;100035.00;;;;5123171;27;20035;-75
2022/02/10 20:21:10;;;;;;;0.00;0.00;;;;;31.80;100053.00;;;;5110262;27;20047;-74
2022/02/10 20:23:41;;;;;;;0.00;0.00;;;;;31.30;100050.00;;;;5110110;28;20759;-73
2022/02/10 20:26:12;;;;;;;0.40;0.28;;;;;30.40;100050.00;;;;5109358;27;20051;-74
2022/02/10 20:28:43;;;;;;;0.00;0.00;;;;;30.00;100034.00;;;;5109479;28;20044;-73
2022/02/10 20:31:12;;;;;;;0.00;0.00;;;;;29.80;100051.00;;;;5109029;28;20047;-73
2022/02/10 20:33:43;;;;;;;0.00;0.00;;;;;29.60;100060.00;;;;5109137;28;20514;-75
2022/02/10 20:36:15;;;;;;;0.00;0.00;;;;;29.50;100052.00;;;;5108365;28;20063;-73
2022/02/10 20:38:48;;;;;;;0.00;0.00;;;;;29.60;100047.00;;;;5111518;27;20403;-76
2022/02/10 20:41:19;;;;;;;0.00;0.00;;;;;29.40;100052.00;;;;5109909;28;20052;-76
2022/02/10 20:43:53;;;;;;;0.00;0.00;;;;;29.30;100063.00;;;;5109816;28;20820;-75
2022/02/10 20:46:24;;;;;;;0.08;0.00;;;;;29.40;100056.00;;;;5109014;28;20040;-74
2022/02/10 20:48:55;;;;;;;0.00;0.00;;;;;29.20;100042.00;;;;5109140;28;20054;-76
2022/02/10 20:51:24;;;;;;;0.00;0.00;;;;;29.10;100073.00;;;;5107108;28;20425;-73
2022/02/10 20:53:54;;;;;;;0.00;0.00;;;;;29.10;100062.00;;;;5109284;28;20543;-75
2022/02/10 20:56:23;;;;;;;0.00;0.00;;;;;28.90;100062.00;;;;5108489;28;20035;-75
2022/02/10 20:58:57;;;;;;;0.00;0.00;;;;;28.80;100069.00;;;;5108906;28;20039;-76
2022/02/10 21:01:27;;;;;;;0.00;0.00;;;;;28.70;100077.00;;;;5109110;28;20050;-76
2022/02/10 21:03:59;;;;;;;0.00;0.00;;;;;28.60;100078.00;;;;5108183;28;20044;-76
2022/02/10 21:06:47;;;;;;;0.00;0.00;;;;;28.60;100088.00;;;;5108429;28;20043;-75
2022/02/10 21:09:31;;;;;;;0.00;0.00;;;;;28.40;100090.00;;;;5108004;28;20031;-74
2022/02/10 21:12:02;;;;;;;0.00;0.00;;;;;28.20;100091.00;;;;5109206;28;20543;-75
2022/02/10 21:14:31;;;;;;;0.00;0.00;;;;;28.20;100106.00;;;;5109159;28;20043;-75
2022/02/10 21:17:07;;;;;;;0.00;0.00;;;;;28.10;100101.00;;;;5109134;28;20046;-76
2022/02/10 21:19:42;;;;;;;0.00;0.00;;;;;27.90;100110.00;;;;5108247;28;20071;-75
2022/02/10 21:22:17;;;;;;;0.00;0.00;;;;;27.90;100106.00;;;;5107598;28;20498;-74
2022/02/10 21:24:55;;;;;;;0.00;0.00;;;;;27.70;100103.00;;;;5108750;28;20431;-76
2022/02/10 21:27:30;;;;;;;0.00;0.00;;;;;27.60;100110.00;;;;5112043;27;20502;-75
2022/02/10 21:30:04;;;;;;;0.00;0.00;;;;;27.50;100081.00;;;;5106589;28;20539;-75
2022/02/10 21:32:39;;;;;;;0.00;0.00;;;;;27.40;100098.00;;;;5107806;28;20042;-73
2022/02/10 21:35:29;;;;;;;0.00;0.00;;;;;27.30;100104.00;;;;5107782;28;20047;-74
2022/02/10 21:38:16;;;;;;;0.00;0.00;;;;;27.20;100104.00;;;;5107729;28;20553;-75
2022/02/10 22:19:20;;;;;;;0.00;0.00;;;;;26.80;100141.00;;;;5049429;28;20127;-79
2022/02/10 22:21:56;;;;;;;0.00;0.00;;;;;26.50;100155.00;;;;5095868;27;20034;-74
2022/02/10 22:24:26;;;;;;;0.00;0.00;;;;;26.10;100139.00;;;;5086851;28;20040;-77
2022/02/10 22:26:56;;;;;;;0.00;0.00;;;;;26.10;100124.00;;;;5087450;28;20055;-75
2022/02/10 22:29:33;;;;;;;0.00;0.00;;;;;25.80;100139.00;;;;5085157;28;20036;-76
2022/02/10 22:34:54;;;;;;;0.00;0.00;;;;;26.00;100143.00;;;;5085844;28;20879;-75
2022/02/10 22:37:24;;;;;;;0.00;0.00;;;;;26.10;100140.00;;;;5102366;28;20051;-75
2022/02/10 22:39:55;;;;;;;0.00;0.00;;;;;26.00;100162.00;;;;5102666;28;20040;-77
2022/02/10 22:42:44;;;;;;;;;;;;;25.80;100177.00;;;;5099542;28;20066;-76
2022/02/10 22:45:14;;;;;;;0.00;0.00;;;;;25.50;100156.00;;;;5085760;28;19924;-77
2022/02/10 22:47:43;;;;;;;0.00;0.00;;;;;25.30;100152.00;;;;5086438;28;20048;-75
2022/02/10 22:50:15;;;;;;;0.00;0.00;;;;;25.00;100173.00;;;;5086498;28;20052;-75
2022/02/10 22:52:45;;;;;;;0.00;0.00;;;;;24.70;100173.00;;;;5086395;28;20051;-76
2022/02/10 22:55:14;;;;;;;0.00;0.00;;;;;24.30;100184.00;;;;5085174;28;20044;-78
2022/02/10 22:57:44;;;;;;;0.00;0.00;;;;;24.00;100185.00;;;;5084461;28;20062;-75
2022/02/10 23:00:36;;;;;;;0.00;0.00;;;;;23.90;100178.00;;;;5086337;28;20088;-79
2022/02/10 23:03:05;;;;;;;0.10;0.08;;;;;23.90;100180.00;;;;5102225;28;20048;-73
2022/02/10 23:05:36;;;;;;;0.00;0.00;;;;;23.80;100181.00;;;;5087375;28;20032;-76
2022/02/10 23:08:05;;;;;;;0.00;0.00;;;;;23.90;100206.00;;;;5084964;28;20040;-75
2022/02/10 23:10:48;;;;;;;0.00;0.00;;;;;24.10;100203.00;;;;5085892;28;20051;-77
2022/02/10 23:13:23;;;;;;;0.03;0.00;;;;;23.90;100193.00;;;;5104658;28;20806;-80
2022/02/10 23:16:06;;;;;;;0.00;0.00;;;;;24.10;100213.00;;;;5106297;28;20047;-75
2022/02/10 23:18:36;;;;;;;0.00;0.00;;;;;24.20;100213.00;;;;5105545;28;20127;-77
2022/02/10 23:21:10;;;;;;;0.00;0.00;;;;;24.10;100221.00;;;;5105070;28;20055;-77
2022/02/10 23:23:44;;;;;;;0.00;0.00;;;;;24.20;100209.00;;;;5108397;28;20035;-79
2022/02/10 23:26:17;;;;;;;0.00;0.00;;;;;24.30;100213.00;;;;5109088;28;20057;-75
2022/02/10 23:28:52;;;;;;;0.00;0.00;;;;;24.10;100222.00;;;;5108624;28;20675;-77
2022/02/10 23:31:25;;;;;;;0.00;0.00;;;;;24.10;100232.00;;;;5111886;28;20405;-76
2022/02/10 23:34:01;;;;;;;0.00;0.00;;;;;24.20;100233.00;;;;5109358;28;20083;-75
2022/02/10 23:36:47;;;;;;;0.00;0.00;;;;;24.20;100253.00;;;;5110586;28;20044;-77
2022/02/10 23:39:27;;;;;;;0.00;0.00;;;;;24.20;100247.00;;;;5109754;28;20052;-77
2022/02/10 23:47:03;;;;;;;0.00;0.00;;;;;23.80;100250.00;;;;5110240;28;20571;-78
2022/02/10 23:49:36;;;;;;;0.00;0.00;;;;;23.80;100258.00;;;;5108705;28;20489;-78
2022/02/10 23:52:08;;;;;;;0.00;0.00;;;;;23.90;100262.00;;;;5109986;28;20054;-74
2022/02/10 23:54:42;;;;;;;0.00;0.00;;;;;23.80;100270.00;;;;5110434;28;20032;-75
2022/02/10 23:57:17;;;;;;;0.00;0.00;;;;;23.70;100263.00;;;;5110784;28;20047;-75
